Time;durP1;ratioP1;P1;durP2;ratioP2;P2;SDS_P1;SDS_P2;PMS_P1;PMS_P2;Temp;Humidity;BMP_temperature;BMP_pressure;BME280_temperature;BME280_humidity;BME280_pressure;Samples;Min_cycle;Max_cycle;Signal;HPM_P1;HPM_P2
2022/11/13 00:09:31;;;;;;;10.55;5.93;;;5.80;99.90;;;;;;6303101;22;20019;-89
2022/11/13 00:11:56;;;;;;;11.43;6.37;;;5.80;99.90;;;;;;6280617;22;20022;-89
2022/11/13 00:14:22;;;;;;;10.43;6.77;;;5.80;99.90;;;;;;6254442;22;20023;-88
2022/11/13 00:16:48;;;;;;;10.97;6.47;;;5.80;99.90;;;;;;6242307;22;20019;-87
2022/11/13 00:19:13;;;;;;;11.10;6.10;;;5.80;99.90;;;;;;6249635;22;20106;-89
2022/11/13 00:21:55;;;;;;;11.60;6.47;;;5.80;99.90;;;;;;6253730;22;20030;-88
2022/11/13 00:24:24;;;;;;;12.45;6.60;;;5.80;99.90;;;;;;6253424;22;20460;-88
2022/11/13 00:26:50;;;;;;;10.38;6.40;;;5.80;99.90;;;;;;6243044;22;20478;-88
2022/11/13 00:29:16;;;;;;;13.00;7.00;;;5.90;99.90;;;;;;6254372;22;20015;-91
2022/11/13 00:31:41;;;;;;;10.05;5.82;;;5.90;99.90;;;;;;6306406;22;20020;-88
2022/11/13 00:34:09;;;;;;;10.37;6.00;;;5.90;99.90;;;;;;6280100;22;20011;-88
2022/11/13 00:36:35;;;;;;;11.90;6.90;;;5.90;99.90;;;;;;6254645;22;20022;-88
2022/11/13 00:39:01;;;;;;;12.00;6.90;;;5.90;99.90;;;;;;6255861;22;20015;-88
2022/11/13 00:41:26;;;;;;;13.53;6.57;;;5.90;99.90;;;;;;6252504;22;20011;-90
2022/11/13 00:43:52;;;;;;;12.13;6.83;;;5.90;99.90;;;;;;6256787;22;20499;-88
2022/11/13 00:46:18;;;;;;;15.37;7.20;;;5.90;99.90;;;;;;6282594;22;20051;-88
2022/11/13 00:48:44;;;;;;;13.70;7.50;;;5.90;99.90;;;;;;6257461;22;20067;-89
2022/11/13 00:51:09;;;;;;;12.27;6.40;;;6.00;99.90;;;;;;6283026;22;20016;-89
2022/11/13 00:53:35;;;;;;;11.60;6.60;;;6.00;99.90;;;;;;6230759;22;20015;-87
2022/11/13 00:58:36;;;;;;;13.25;7.22;;;6.00;99.90;;;;;;6274380;22;20021;-88
2022/11/13 01:01:11;;;;;;;12.03;6.73;;;6.10;99.90;;;;;;6138530;23;20095;-88
2022/11/13 01:03:36;;;;;;;11.35;7.13;;;6.10;99.90;;;;;;6159508;23;20028;-87
2022/11/13 01:06:18;;;;;;;13.30;7.00;;;6.10;99.90;;;;;;6135657;23;20370;-87
2022/11/13 01:08:44;;;;;;;11.95;6.53;;;6.00;99.90;;;;;;6185731;23;20020;-87
2022/11/13 01:11:20;;;;;;;13.02;7.07;;;6.00;99.90;;;;;;6185563;23;20009;-87
2022/11/13 01:13:50;;;;;;;12.65;7.30;;;6.00;99.90;;;;;;6160416;23;20054;-87
2022/11/13 01:16:19;;;;;;;13.25;7.68;;;6.00;99.90;;;;;;6158938;23;20528;-88
2022/11/13 01:18:45;;;;;;;12.07;6.70;;;6.10;99.90;;;;;;6158225;23;20025;-88
2022/11/13 01:21:14;;;;;;;14.48;7.65;;;6.10;99.90;;;;;;6158741;23;20008;-87
2022/11/13 01:23:41;;;;;;;12.02;7.40;;;6.10;99.90;;;;;;6182142;23;20104;-88
2022/11/13 01:26:14;;;;;;;11.95;6.53;;;6.10;99.90;;;;;;6181403;23;20517;-90
2022/11/13 01:28:41;;;;;;;13.20;7.35;;;6.10;99.90;;;;;;6181446;23;20025;-87
2022/11/13 01:31:07;;;;;;;;;;;6.10;99.90;;;;;;6184262;23;20043;-88
2022/11/13 01:33:34;;;;;;;14.20;7.53;;;6.10;99.90;;;;;;6159172;22;19922;-86
2022/11/13 01:36:02;;;;;;;14.23;7.88;;;6.10;99.90;;;;;;6184046;22;20445;-86
2022/11/13 01:38:28;;;;;;;14.23;7.57;;;6.10;99.90;;;;;;6183966;23;20020;-87
2022/11/13 01:40:54;;;;;;;13.07;7.30;;;6.10;99.90;;;;;;6160911;23;20024;-92
2022/11/13 01:43:24;;;;;;;12.37;7.13;;;6.20;99.90;;;;;;6212014;23;20403;-89
2022/11/13 01:46:06;;;;;;;13.13;7.72;;;6.20;99.90;;;;;;6183316;23;20473;-87
2022/11/13 01:48:42;;;;;;;13.02;7.47;;;6.20;99.90;;;;;;6183187;23;20095;-86
2022/11/13 01:51:13;;;;;;;15.52;7.70;;;6.10;99.90;;;;;;6182487;23;20017;-86
2022/11/13 01:53:42;;;;;;;13.43;8.07;;;6.20;99.90;;;;;;6183200;23;20317;-87
2022/11/13 01:56:09;;;;;;;11.05;6.43;;;6.20;99.90;;;;;;6209532;23;20344;-87
2022/11/13 01:58:36;;;;;;;12.95;7.60;;;6.20;99.90;;;;;;6158114;23;20020;-88
2022/11/13 02:01:02;;;;;;;13.18;7.85;;;6.20;99.90;;;;;;6185185;23;20055;-87
2022/11/13 02:03:28;;;;;;;12.63;7.47;;;6.20;99.90;;;;;;6185868;22;20021;-91
2022/11/13 02:05:54;;;;;;;13.70;7.00;;;6.20;99.90;;;;;;6160708;22;20021;-92
2022/11/13 02:08:20;;;;;;;13.45;6.95;;;6.20;99.90;;;;;;6185905;23;20027;-88
2022/11/13 02:10:46;;;;;;;14.73;8.00;;;6.20;99.90;;;;;;6160577;23;20013;-88
2022/11/13 02:13:13;;;;;;;12.98;7.40;;;6.20;99.90;;;;;;6160998;23;20016;-90
2022/11/13 02:15:40;;;;;;;12.85;6.88;;;6.20;99.90;;;;;;6136770;23;20081;-87
2022/11/13 02:18:06;;;;;;;13.45;7.55;;;6.30;99.90;;;;;;6185795;23;20095;-88
2022/11/13 02:21:11;;;;;;;13.70;7.68;;;6.20;99.90;;;;;;6161070;23;20091;-88
2022/11/13 02:24:02;;;;;;;12.25;7.10;;;6.30;99.90;;;;;;6202106;23;20055;-87
2022/11/13 02:26:30;;;;;;;14.23;7.47;;;6.30;99.90;;;;;;6185574;23;20066;-88
2022/11/13 02:28:55;;;;;;;14.20;6.78;;;6.30;99.90;;;;;;6160740;23;20052;-94
2022/11/13 02:31:21;;;;;;;14.80;7.83;;;6.30;99.90;;;;;;6111919;23;20094;-93
2022/11/13 02:33:47;;;;;;;11.73;6.80;;;6.40;99.90;;;;;;6185715;23;20033;-88
2022/11/13 02:36:20;;;;;;;10.87;6.07;;;6.30;99.90;;;;;;6161050;22;20073;-91
2022/11/13 02:38:46;;;;;;;11.05;6.07;;;6.40;99.90;;;;;;6137484;23;20012;-90
2022/11/13 02:41:12;;;;;;;13.40;7.20;;;6.40;99.90;;;;;;6136341;23;20031;-88
2022/11/13 02:43:37;;;;;;;11.97;6.40;;;6.40;99.90;;;;;;6160930;23;20127;-87
2022/11/13 02:46:03;;;;;;;12.23;7.03;;;6.40;99.90;;;;;;6160772;23;20099;-90
2022/11/13 02:48:29;;;;;;;12.43;6.50;;;6.50;99.90;;;;;;6135958;23;20302;-93
2022/11/13 02:50:55;;;;;;;12.10;6.77;;;6.40;99.90;;;;;;6160610;22;20028;-90
2022/11/13 02:53:20;;;;;;;12.47;6.50;;;6.50;99.90;;;;;;6160786;23;20017;-87
2022/11/13 02:55:46;;;;;;;13.57;7.00;;;6.50;99.90;;;;;;6185502;23;20017;-88
2022/11/13 02:58:12;;;;;;;12.97;7.30;;;6.50;99.90;;;;;;6160759;23;20341;-90
2022/11/13 03:00:38;;;;;;;13.57;7.47;;;6.60;99.90;;;;;;6136113;23;20025;-89
2022/11/13 03:03:04;;;;;;;12.17;6.30;;;6.50;99.90;;;;;;6160625;23;20017;-88
2022/11/13 03:05:29;;;;;;;11.93;6.33;;;6.60;99.90;;;;;;6136683;23;20255;-92
2022/11/13 03:07:55;;;;;;;13.67;6.50;;;6.60;99.90;;;;;;6160654;23;20090;-88
2022/11/13 03:10:21;;;;;;;11.93;6.10;;;6.60;99.90;;;;;;6135371;23;20017;-88
2022/11/13 03:12:47;;;;;;;11.53;6.23;;;6.60;99.90;;;;;;6160813;22;20457;-88
2022/11/13 03:15:13;;;;;;;13.40;6.27;;;6.60;99.90;;;;;;6136505;23;20013;-88
2022/11/13 03:17:38;;;;;;;11.83;6.27;;;6.60;99.90;;;;;;6160621;23;20050;-92
2022/11/13 03:20:05;;;;;;;10.70;5.70;;;6.60;99.90;;;;;;6160588;23;20225;-87
2022/11/13 03:22:31;;;;;;;10.32;6.35;;;6.60;99.90;;;;;;6135948;23;20017;-91
2022/11/13 03:24:56;;;;;;;13.20;6.63;;;6.60;99.90;;;;;;6160574;23;20020;-92
2022/11/13 03:27:22;;;;;;;11.13;6.33;;;6.70;99.90;;;;;;6185585;23;20016;-93
2022/11/13 03:29:48;;;;;;;13.57;6.63;;;6.70;99.90;;;;;;6161053;22;20020;-89
2022/11/13 03:32:14;;;;;;;10.63;6.23;;;6.70;99.90;;;;;;6160706;22;20028;-92
2022/11/13 03:34:40;;;;;;;14.17;6.70;;;6.70;99.90;;;;;;6136421;23;20040;-89
2022/11/13 03:37:05;;;;;;;13.90;6.30;;;6.60;99.90;;;;;;6160690;23;20026;-88
2022/11/13 03:39:31;;;;;;;11.77;6.40;;;6.70;99.90;;;;;;6185287;23;20076;-88
2022/11/13 03:41:57;;;;;;;14.47;7.43;;;6.60;99.90;;;;;;6160379;23;20096;-88
2022/11/13 03:44:22;;;;;;;11.47;6.03;;;6.60;99.90;;;;;;6185268;23;20028;-88
2022/11/13 03:46:48;;;;;;;11.20;6.53;;;6.60;99.90;;;;;;6160537;23;20066;-88
2022/11/13 03:49:14;;;;;;;11.83;6.60;;;6.60;99.90;;;;;;6160920;23;20095;-88
2022/11/13 03:51:40;;;;;;;10.43;5.70;;;6.60;99.90;;;;;;6161283;23;20012;-88
2022/11/13 03:54:05;;;;;;;11.90;6.40;;;6.50;99.90;;;;;;6161360;23;20460;-88
2022/11/13 03:56:31;;;;;;;11.10;6.13;;;6.50;99.90;;;;;;6161568;23;20012;-88
2022/11/13 03:58:57;;;;;;;10.13;5.83;;;6.50;99.90;;;;;;6162777;23;20032;-87
2022/11/13 04:01:23;;;;;;;11.40;6.17;;;6.50;99.90;;;;;;6186445;23;20074;-89
2022/11/13 04:03:48;;;;;;;10.33;5.93;;;6.50;99.90;;;;;;6161275;22;20065;-93
2022/11/13 04:06:14;;;;;;;11.50;6.50;;;6.50;99.90;;;;;;6160368;22;20086;-88
2022/11/13 04:08:40;;;;;;;12.00;6.23;;;6.50;99.90;;;;;;6184817;23;20012;-88
2022/11/13 04:11:11;;;;;;;12.07;6.10;;;6.50;99.90;;;;;;6160029;23;20345;-91
2022/11/13 04:13:37;;;;;;;13.35;6.65;;;6.40;99.90;;;;;;6161894;23;20063;-88
2022/11/13 04:16:03;;;;;;;13.73;6.10;;;6.40;99.90;;;;;;6163436;23;20025;-88
2022/11/13 04:18:29;;;;;;;9.65;5.78;;;6.50;99.90;;;;;;6163159;23;20012;-89
2022/11/13 04:21:02;;;;;;;13.80;6.40;;;6.50;99.90;;;;;;6188022;23;20526;-93
2022/11/13 04:23:28;;;;;;;12.40;6.03;;;6.50;99.90;;;;;;6163296;23;20046;-87
2022/11/13 04:25:54;;;;;;;11.40;5.60;;;6.50;99.90;;;;;;6163548;23;20020;-89
2022/11/13 04:28:20;;;;;;;12.27;6.13;;;6.50;99.90;;;;;;6138738;23;20013;-88
2022/11/13 04:30:46;;;;;;;11.95;6.40;;;6.50;99.90;;;;;;6163422;22;20349;-91
2022/11/13 04:33:12;;;;;;;10.53;5.67;;;6.50;99.90;;;;;;6163192;23;20020;-87
2022/11/13 04:35:37;;;;;;;10.87;5.53;;;6.50;99.90;;;;;;6163189;23;20024;-87
2022/11/13 04:38:04;;;;;;;11.40;5.80;;;6.40;99.90;;;;;;6138782;23;20052;-92
2022/11/13 04:40:29;;;;;;;10.32;5.53;;;6.40;99.90;;;;;;6162978;23;20448;-88
2022/11/13 04:42:55;;;;;;;11.47;5.77;;;6.40;99.90;;;;;;6163422;22;20017;-89
2022/11/13 04:45:23;;;;;;;11.47;5.93;;;6.40;99.90;;;;;;6138917;23;20065;-88
2022/11/13 04:47:49;;;;;;;11.15;5.60;;;6.40;99.90;;;;;;6163075;23;20083;-88
2022/11/13 04:50:16;;;;;;;11.50;5.63;;;6.40;99.90;;;;;;6187774;23;20021;-88
2022/11/13 04:52:42;;;;;;;10.10;5.75;;;6.40;99.90;;;;;;6187897;23;20445;-88
2022/11/13 04:55:08;;;;;;;9.53;5.30;;;6.40;99.90;;;;;;6187762;23;20062;-87
2022/11/13 04:57:34;;;;;;;10.80;5.90;;;6.40;99.90;;;;;;6214355;23;20070;-90
2022/11/13 05:00:00;;;;;;;9.63;5.40;;;6.40;99.90;;;;;;6187385;23;20017;-88
2022/11/13 05:02:26;;;;;;;10.50;6.07;;;6.40;99.90;;;;;;6187627;23;20029;-88
2022/11/13 05:04:52;;;;;;;10.03;5.03;;;6.40;99.90;;;;;;6162963;23;20523;-92
2022/11/13 05:07:17;;;;;;;12.20;6.23;;;6.40;99.90;;;;;;6163197;22;20145;-88
2022/11/13 05:09:43;;;;;;;10.70;5.63;;;6.40;99.90;;;;;;6187481;23;20013;-88
2022/11/13 05:12:09;;;;;;;11.67;5.70;;;6.40;99.90;;;;;;6162974;22;20016;-87
2022/11/13 05:14:36;;;;;;;10.70;5.87;;;6.30;99.90;;;;;;6187606;22;20099;-88
2022/11/13 05:17:03;;;;;;;10.70;6.00;;;6.30;99.90;;;;;;6187574;23;20016;-87
2022/11/13 05:19:30;;;;;;;9.93;5.45;;;6.30;99.90;;;;;;6162819;23;20032;-88
2022/11/13 05:21:56;;;;;;;11.65;5.57;;;6.30;99.90;;;;;;6162837;23;20016;-88
2022/11/13 05:24:22;;;;;;;12.73;5.97;;;6.30;99.90;;;;;;6161390;23;20020;-88
2022/11/13 05:26:48;;;;;;;10.07;5.67;;;6.20;99.90;;;;;;6161141;22;20017;-87
2022/11/13 05:29:13;;;;;;;11.43;5.53;;;6.20;99.90;;;;;;6185745;23;20052;-88
2022/11/13 05:31:39;;;;;;;10.00;5.20;;;6.20;99.90;;;;;;6160941;23;20391;-88
2022/11/13 05:34:05;;;;;;;13.33;6.10;;;6.20;99.90;;;;;;6161136;23;20373;-93
2022/11/13 05:36:31;;;;;;;11.82;5.72;;;6.10;99.90;;;;;;6160703;23;20020;-90
2022/11/13 05:38:57;;;;;;;10.00;5.13;;;6.10;99.90;;;;;;6161169;23;20024;-88
2022/11/13 05:41:23;;;;;;;9.60;5.20;;;6.10;99.90;;;;;;6161134;22;20024;-88
2022/11/13 05:43:49;;;;;;;11.43;5.57;;;6.10;99.90;;;;;;6136332;23;20379;-88
2022/11/13 05:46:18;;;;;;;11.35;6.00;;;6.10;99.90;;;;;;6136356;23;20024;-87
2022/11/13 05:48:44;;;;;;;10.25;5.10;;;6.10;99.90;;;;;;6160849;23;20393;-88
2022/11/13 05:51:13;;;;;;;10.55;5.25;;;6.10;99.90;;;;;;6160891;23;20449;-88
2022/11/13 05:53:39;;;;;;;11.85;5.35;;;6.10;99.90;;;;;;6160911;23;20027;-87
2022/11/13 05:56:17;;;;;;;10.20;5.22;;;6.00;99.90;;;;;;6136362;23;20013;-93
2022/11/13 05:58:43;;;;;;;11.45;5.95;;;6.00;99.90;;;;;;6185399;23;20024;-88
2022/11/13 06:01:13;;;;;;;10.00;5.80;;;6.10;99.90;;;;;;6160859;23;20017;-88
2022/11/13 06:03:39;;;;;;;9.93;4.88;;;6.10;99.90;;;;;;6185649;23;20023;-88
2022/11/13 06:06:07;;;;;;;11.40;5.63;;;6.00;99.90;;;;;;6212080;23;20024;-87
2022/11/13 06:08:34;;;;;;;10.45;5.53;;;6.10;99.90;;;;;;6161124;22;20797;-88
2022/11/13 06:11:08;;;;;;;10.85;5.88;;;6.00;99.90;;;;;;6160964;23;20020;-89
2022/11/13 06:13:34;;;;;;;10.68;5.53;;;6.00;99.90;;;;;;6185534;23;20073;-87
2022/11/13 06:16:01;;;;;;;9.63;4.93;;;5.90;99.90;;;;;;6185282;23;20024;-88
2022/11/13 06:18:27;;;;;;;11.20;5.45;;;5.90;99.90;;;;;;6185507;23;20052;-88
2022/11/13 06:20:53;;;;;;;9.10;5.30;;;5.80;99.90;;;;;;6160908;23;20081;-87
2022/11/13 06:23:19;;;;;;;9.93;5.13;;;5.80;99.90;;;;;;6160947;23;20091;-87
2022/11/13 06:25:45;;;;;;;11.43;5.33;;;5.70;99.90;;;;;;6160843;23;20105;-88
2022/11/13 06:28:10;;;;;;;11.63;5.13;;;5.70;99.90;;;;;;6185446;23;20024;-87
2022/11/13 06:30:36;;;;;;;10.00;5.50;;;5.70;99.90;;;;;;6160961;23;20047;-89
2022/11/13 06:33:02;;;;;;;9.57;4.87;;;5.70;99.90;;;;;;6160712;23;20040;-88
2022/11/13 06:35:28;;;;;;;10.03;5.07;;;5.60;99.90;;;;;;6135978;23;20062;-94
2022/11/13 06:37:54;;;;;;;9.52;5.15;;;5.70;99.90;;;;;;6185110;23;20024;-87
2022/11/13 06:40:20;;;;;;;10.75;5.60;;;5.60;99.90;;;;;;6136025;23;20013;-88
2022/11/13 06:42:46;;;;;;;9.93;5.43;;;5.60;99.90;;;;;;6136145;23;20028;-88
2022/11/13 06:45:12;;;;;;;10.73;5.37;;;5.60;99.90;;;;;;6160777;23;20016;-89
2022/11/13 06:47:54;;;;;;;9.53;5.33;;;5.60;99.90;;;;;;6185674;22;20016;-87
2022/11/13 06:50:19;;;;;;;9.45;5.22;;;5.70;99.90;;;;;;6160623;23;20091;-87
2022/11/13 06:52:45;;;;;;;10.10;5.13;;;5.60;99.90;;;;;;6160513;23;20052;-87
2022/11/13 06:55:11;;;;;;;10.93;5.10;;;5.70;99.90;;;;;;6160438;23;20023;-88
2022/11/13 06:57:37;;;;;;;10.30;5.72;;;5.70;99.90;;;;;;6185275;22;20104;-88
2022/11/13 07:00:04;;;;;;;11.60;5.23;;;5.70;99.90;;;;;;6260606;22;20027;-88
2022/11/13 07:02:29;;;;;;;9.13;4.82;;;5.60;99.90;;;;;;6286657;22;20017;-88
2022/11/13 07:04:55;;;;;;;10.40;5.53;;;5.70;99.90;;;;;;6286659;22;20023;-86
2022/11/13 07:07:21;;;;;;;8.27;4.53;;;5.60;99.90;;;;;;6286386;22;20015;-91
2022/11/13 07:09:47;;;;;;;11.50;5.77;;;5.60;99.90;;;;;;6339756;22;20021;-87
2022/11/13 07:12:12;;;;;;;10.43;5.53;;;5.60;99.90;;;;;;6312424;22;20459;-89
2022/11/13 07:14:38;;;;;;;11.57;6.07;;;5.70;99.90;;;;;;6339654;22;20090;-87
2022/11/13 07:17:04;;;;;;;10.90;6.00;;;5.70;99.90;;;;;;6339433;22;20019;-88
2022/11/13 07:19:29;;;;;;;9.07;5.53;;;5.70;99.90;;;;;;6311728;22;20019;-93
2022/11/13 07:21:55;;;;;;;9.77;5.33;;;5.60;99.90;;;;;;6286099;22;20030;-88
2022/11/13 07:24:20;;;;;;;10.90;5.53;;;5.60;99.90;;;;;;6311947;22;20015;-87
2022/11/13 07:26:46;;;;;;;9.67;4.80;;;5.60;99.90;;;;;;6339337;22;20475;-89
2022/11/13 07:29:12;;;;;;;8.90;4.70;;;5.50;99.90;;;;;;6311991;22;20017;-87
2022/11/13 07:31:38;;;;;;;9.90;5.87;;;5.50;99.90;;;;;;6339088;22;20022;-89
2022/11/13 07:34:03;;;;;;;9.87;5.27;;;5.50;99.90;;;;;;6311807;22;20014;-87
2022/11/13 07:36:29;;;;;;;9.33;5.20;;;5.50;99.90;;;;;;6311768;22;20018;-89
2022/11/13 07:38:54;;;;;;;13.10;5.93;;;5.50;99.90;;;;;;6339254;22;20091;-87
2022/11/13 07:41:20;;;;;;;9.60;5.30;;;5.50;99.90;;;;;;6311803;22;20026;-88
2022/11/13 07:43:46;;;;;;;11.33;5.27;;;5.50;99.90;;;;;;6311495;22;20148;-90
2022/11/13 07:46:11;;;;;;;11.27;5.90;;;5.50;99.90;;;;;;6311468;22;20019;-87
2022/11/13 07:48:37;;;;;;;11.60;5.57;;;5.50;99.90;;;;;;6311245;22;20018;-88
2022/11/13 07:51:03;;;;;;;11.10;6.03;;;5.50;99.90;;;;;;6312184;22;20021;-88
2022/11/13 07:53:29;;;;;;;11.00;5.50;;;5.50;99.90;;;;;;6260604;22;20064;-92
2022/11/13 07:55:55;;;;;;;9.77;5.15;;;5.50;99.90;;;;;;6260192;22;20118;-88
2022/11/13 07:58:21;;;;;;;10.90;5.33;;;5.40;99.90;;;;;;6277169;22;20048;-87
2022/11/13 08:00:46;;;;;;;10.90;5.00;;;5.40;99.90;;;;;;6160095;23;20117;-91
2022/11/13 08:03:14;;;;;;;10.87;5.00;;;5.50;99.90;;;;;;6184864;23;20388;-93
2022/11/13 08:05:41;;;;;;;11.02;5.13;;;5.40;99.90;;;;;;6184777;23;20334;-88
2022/11/13 08:08:09;;;;;;;12.93;6.85;;;5.50;99.90;;;;;;6185083;23;20469;-89
2022/11/13 08:10:35;;;;;;;10.63;5.30;;;5.60;99.90;;;;;;6185013;23;20036;-88
2022/11/13 08:13:04;;;;;;;9.17;5.43;;;5.60;99.90;;;;;;6184967;23;20016;-87
2022/11/13 08:15:30;;;;;;;9.02;5.53;;;5.60;99.90;;;;;;6209715;23;20024;-88
2022/11/13 08:17:57;;;;;;;12.27;6.20;;;5.70;99.90;;;;;;6211325;23;20331;-88
2022/11/13 08:20:25;;;;;;;11.07;5.80;;;5.70;99.90;;;;;;6209748;23;20013;-88
2022/11/13 08:22:51;;;;;;;11.45;6.13;;;5.70;99.90;;;;;;6211150;23;20017;-88
2022/11/13 08:25:18;;;;;;;10.25;5.65;;;5.80;99.90;;;;;;6211296;23;20044;-88
2022/11/13 08:27:43;;;;;;;11.60;6.03;;;5.90;99.90;;;;;;6209521;23;20067;-88
2022/11/13 08:30:10;;;;;;;11.10;5.63;;;6.00;99.90;;;;;;6211317;23;20020;-88
2022/11/13 08:32:35;;;;;;;12.35;6.55;;;6.00;99.90;;;;;;6209658;23;20023;-89
2022/11/13 08:35:01;;;;;;;12.73;6.23;;;6.10;99.90;;;;;;6209893;23;20053;-88
2022/11/13 08:37:27;;;;;;;11.30;6.77;;;6.20;99.90;;;;;;6209442;23;20027;-91
2022/11/13 08:39:53;;;;;;;10.93;6.15;;;6.30;99.90;;;;;;6184768;23;20016;-88
2022/11/13 08:42:19;;;;;;;11.00;5.73;;;6.40;99.90;;;;;;6211187;23;20020;-88
2022/11/13 08:44:44;;;;;;;11.67;6.33;;;6.50;99.90;;;;;;6209682;23;20088;-88
2022/11/13 08:47:10;;;;;;;13.33;6.53;;;6.50;99.90;;;;;;6184423;23;20511;-94
2022/11/13 08:49:36;;;;;;;11.90;5.27;;;6.60;99.90;;;;;;6210871;23;20312;-92
2022/11/13 08:52:02;;;;;;;11.07;5.90;;;6.60;99.90;;;;;;6211095;23;20346;-89
2022/11/13 08:54:28;;;;;;;11.05;6.13;;;6.70;99.90;;;;;;6209768;23;20021;-94
2022/11/13 08:56:53;;;;;;;10.70;6.50;;;6.70;99.90;;;;;;6211159;23;20020;-88
2022/11/13 08:59:19;;;;;;;10.63;6.53;;;6.80;99.90;;;;;;6301501;22;20053;-88
2022/11/13 09:01:45;;;;;;;10.37;6.27;;;6.90;99.90;;;;;;6312991;22;20025;-89
2022/11/13 09:04:10;;;;;;;10.43;6.13;;;6.90;99.90;;;;;;6312927;22;20018;-88
2022/11/13 09:06:36;;;;;;;13.27;6.80;;;7.00;99.90;;;;;;6287144;22;20042;-86
2022/11/13 09:09:05;;;;;;;12.27;6.90;;;7.10;99.90;;;;;;6312694;22;20456;-87
2022/11/13 09:11:31;;;;;;;11.38;6.82;;;7.20;99.90;;;;;;6311462;22;20021;-87
2022/11/13 09:13:57;;;;;;;11.73;6.15;;;7.20;99.90;;;;;;6313175;22;20343;-93
2022/11/13 09:16:23;;;;;;;11.80;6.43;;;7.30;99.90;;;;;;6340375;22;20042;-87
2022/11/13 09:18:50;;;;;;;11.27;6.63;;;7.30;99.90;;;;;;6287336;22;20022;-86
2022/11/13 09:21:16;;;;;;;10.70;6.32;;;7.40;99.90;;;;;;6340053;22;20526;-87
2022/11/13 09:23:41;;;;;;;12.70;7.10;;;7.40;99.90;;;;;;6312994;22;20058;-86
2022/11/13 09:26:07;;;;;;;11.67;5.77;;;7.50;99.90;;;;;;6312890;22;20091;-87
2022/11/13 09:28:33;;;;;;;10.80;6.13;;;7.50;99.90;;;;;;6312483;22;20019;-87
2022/11/13 09:30:58;;;;;;;13.73;6.47;;;7.60;99.90;;;;;;6312831;22;20037;-88
2022/11/13 09:33:24;;;;;;;10.37;6.47;;;7.60;99.90;;;;;;6313213;22;20018;-86
2022/11/13 09:35:50;;;;;;;11.20;6.20;;;7.70;99.90;;;;;;6312844;22;20019;-87
2022/11/13 09:38:15;;;;;;;11.13;6.07;;;7.70;99.90;;;;;;6286977;22;20018;-86
2022/11/13 09:40:51;;;;;;;11.63;5.70;;;7.70;99.90;;;;;;6312421;22;20065;-87
2022/11/13 09:43:25;;;;;;;12.10;6.03;;;7.70;99.90;;;;;;6286557;22;20018;-92
2022/11/13 09:45:56;;;;;;;10.23;5.72;;;7.80;99.90;;;;;;6286145;22;20152;-87
2022/11/13 09:48:28;;;;;;;9.40;5.63;;;7.80;99.90;;;;;;6287222;22;20014;-87
2022/11/13 09:50:55;;;;;;;12.10;6.15;;;7.90;99.90;;;;;;6340644;22;20018;-89
2022/11/13 09:53:21;;;;;;;;;;;7.90;99.90;;;;;;6287933;22;20015;-88
2022/11/13 09:56:13;;;;;;;10.32;5.95;;;8.00;99.90;;;;;;6287531;22;19922;-91
2022/11/13 09:58:56;;;;;;;11.40;6.80;;;8.10;99.90;;;;;;6226738;22;20027;-88
2022/11/13 10:01:28;;;;;;;11.70;6.57;;;8.20;99.90;;;;;;6214647;23;20350;-89
2022/11/13 10:03:59;;;;;;;10.93;6.70;;;8.30;99.90;;;;;;6188650;22;20027;-87
2022/11/13 10:06:35;;;;;;;12.43;6.43;;;8.30;99.90;;;;;;6217265;23;20030;-88
2022/11/13 10:09:20;;;;;;;11.88;6.03;;;8.40;99.90;;;;;;6189009;23;20043;-89
2022/11/13 10:12:01;;;;;;;12.40;6.60;;;8.50;99.90;;;;;;6161302;23;20027;-88
2022/11/13 10:14:27;;;;;;;9.98;6.20;;;8.50;99.90;;;;;;6161315;23;20016;-92
2022/11/13 10:17:07;;;;;;;8.37;5.13;;;8.50;99.90;;;;;;6212783;23;20047;-88
2022/11/13 10:19:45;;;;;;;10.82;6.07;;;8.60;99.90;;;;;;6211920;23;20025;-89
2022/11/13 10:22:15;;;;;;;11.70;5.60;;;8.70;99.90;;;;;;6212450;23;20016;-88
2022/11/13 10:24:43;;;;;;;11.65;5.82;;;8.80;99.90;;;;;;6185842;23;20025;-95
2022/11/13 10:27:10;;;;;;;12.30;6.03;;;8.90;99.90;;;;;;6212186;23;20016;-95
2022/11/13 10:29:37;;;;;;;11.13;5.95;;;9.00;99.90;;;;;;6185608;23;20052;-91
2022/11/13 10:32:22;;;;;;;10.80;5.75;;;9.00;99.90;;;;;;6160944;23;20095;-88
2022/11/13 10:35:08;;;;;;;10.27;5.07;;;9.10;99.90;;;;;;6160662;23;20062;-87
2022/11/13 10:37:45;;;;;;;9.23;5.85;;;9.10;99.90;;;;;;6185896;23;20446;-88
2022/11/13 10:40:10;;;;;;;10.70;5.60;;;9.10;99.90;;;;;;6186043;23;20048;-90
2022/11/13 10:42:39;;;;;;;11.60;5.53;;;9.20;99.90;;;;;;6160574;23;20024;-88
2022/11/13 10:45:15;;;;;;;9.35;5.40;;;9.20;99.90;;;;;;6211797;23;20024;-88
2022/11/13 10:47:49;;;;;;;9.75;5.43;;;9.30;99.90;;;;;;6160953;23;20056;-89
2022/11/13 10:50:24;;;;;;;9.77;5.18;;;9.30;99.90;;;;;;6160525;23;20052;-93
2022/11/13 10:52:52;;;;;;;10.55;5.50;;;9.40;99.90;;;;;;6184003;23;20013;-95
2022/11/13 10:55:33;;;;;;;11.60;5.82;;;9.40;99.90;;;;;;6186263;23;20023;-94
2022/11/13 10:58:02;;;;;;;12.05;5.25;;;9.40;99.90;;;;;;6212255;23;20059;-95
2022/11/13 11:00:37;;;;;;;12.25;5.97;;;9.50;99.90;;;;;;6186692;23;20024;-94
2022/11/13 11:03:07;;;;;;;9.10;5.15;;;9.60;99.90;;;;;;6186634;23;20097;-92
2022/11/13 11:05:34;;;;;;;9.88;5.55;;;9.60;99.90;;;;;;6163654;23;20028;-91
2022/11/13 11:08:00;;;;;;;10.05;5.50;;;9.60;99.90;;;;;;6187705;23;20019;-92
2022/11/13 11:10:35;;;;;;;10.50;5.85;;;9.60;99.90;;;;;;6138415;23;20027;-96
2022/11/13 11:13:21;;;;;;;8.65;5.00;;;9.60;99.90;;;;;;6214414;23;20020;-92
2022/11/13 11:15:56;;;;;;;9.20;5.57;;;9.50;99.90;;;;;;6164180;23;20021;-94
2022/11/13 11:18:37;;;;;;;9.63;5.40;;;9.50;99.90;;;;;;6203974;23;20445;-95
2022/11/13 11:21:29;;;;;;;9.27;5.25;;;9.50;99.90;;;;;;6135882;23;20017;-96
2022/11/13 11:24:46;;;;;;;10.35;5.40;;;9.60;99.90;;;;;;6211107;23;20012;-93
2022/11/13 11:27:24;;;;;;;11.20;5.78;;;9.60;99.90;;;;;;6180942;23;20027;-94
2022/11/13 11:30:16;;;;;;;8.52;5.05;;;9.70;99.90;;;;;;6174048;23;20021;-95
2022/11/13 11:33:30;;;;;;;8.65;5.22;;;9.80;99.90;;;;;;6228444;23;20068;-96
2022/11/13 11:36:34;;;;;;;10.13;5.57;;;9.90;99.90;;;;;;6190622;22;20046;-95
2022/11/13 11:39:18;;;;;;;8.75;5.65;;;10.00;99.90;;;;;;6161946;23;20155;-94
2022/11/13 11:42:29;;;;;;;10.85;5.65;;;10.10;99.90;;;;;;6158921;23;20043;-93
2022/11/13 11:45:00;;;;;;;8.10;5.00;;;10.10;99.90;;;;;;6161588;23;20020;-94
2022/11/13 11:47:26;;;;;;;10.55;5.80;;;10.10;99.90;;;;;;6185661;23;20027;-93
2022/11/13 11:49:53;;;;;;;10.32;5.68;;;10.10;99.90;;;;;;6213303;22;20012;-91
2022/11/13 11:52:19;;;;;;;9.80;5.60;;;10.10;99.90;;;;;;6185877;23;20017;-92
2022/11/13 11:54:56;;;;;;;10.43;5.50;;;10.10;99.90;;;;;;6161446;22;20071;-93
2022/11/13 11:57:50;;;;;;;9.50;5.15;;;10.20;99.90;;;;;;6186105;23;20017;-91
2022/11/13 12:00:19;;;;;;;8.98;5.20;;;10.20;99.90;;;;;;6212250;23;20016;-92
2022/11/13 12:03:05;;;;;;;8.48;4.97;;;10.20;99.90;;;;;;6213786;23;20028;-91
2022/11/13 12:08:38;;;;;;;9.53;5.57;;;10.40;99.90;;;;;;6218338;23;20020;-90
2022/11/13 12:30:14;;;;;;;8.35;4.43;;;11.00;99.90;;;;;;6212357;23;20466;-94
2022/11/13 12:32:55;;;;;;;9.55;5.28;;;11.00;99.90;;;;;;6163684;23;20048;-94
2022/11/13 12:35:23;;;;;;;9.52;5.10;;;11.00;99.90;;;;;;6166640;23;20051;-94
2022/11/13 12:37:57;;;;;;;9.27;5.28;;;11.10;99.90;;;;;;6164940;23;20024;-92
2022/11/13 12:40:26;;;;;;;11.50;5.20;;;11.10;99.90;;;;;;6162558;23;20023;-92
2022/11/13 13:06:25;;;;;;;9.75;4.55;;;11.30;99.90;;;;;;6214036;23;20020;-89
2022/11/13 13:09:12;;;;;;;10.18;5.50;;;11.30;99.90;;;;;;6163617;22;20062;-89
2022/11/13 13:11:48;;;;;;;9.97;5.30;;;11.30;99.90;;;;;;6161315;23;20353;-89
2022/11/13 13:14:24;;;;;;;8.63;4.47;;;11.30;99.90;;;;;;6161015;23;20485;-91
2022/11/13 13:16:49;;;;;;;8.10;4.28;;;11.30;99.90;;;;;;6160629;23;20048;-91
2022/11/13 13:19:30;;;;;;;8.30;4.10;;;11.30;99.90;;;;;;6160963;23;20445;-89
2022/11/13 13:21:56;;;;;;;7.97;4.20;;;11.40;99.90;;;;;;6160884;23;20050;-90
2022/11/13 13:24:30;;;;;;;8.30;4.30;;;11.40;99.90;;;;;;6160703;23;20082;-89
2022/11/13 13:26:56;;;;;;;8.57;4.53;;;11.40;99.90;;;;;;6161171;22;20034;-90
2022/11/13 13:29:27;;;;;;;9.57;5.05;;;11.40;99.90;;;;;;6160907;23;20095;-89
2022/11/13 13:32:24;;;;;;;8.68;4.40;;;11.30;99.90;;;;;;6136621;23;20099;-90
2022/11/13 13:34:59;;;;;;;9.05;5.30;;;11.40;99.90;;;;;;6196272;23;20514;-88
2022/11/13 13:37:44;;;;;;;8.77;5.10;;;11.30;99.90;;;;;;6185317;23;20013;-91
2022/11/13 13:40:28;;;;;;;9.45;4.95;;;11.30;99.90;;;;;;6160699;23;20028;-90
2022/11/13 13:43:31;;;;;;;9.35;4.82;;;11.30;99.90;;;;;;6129657;23;20070;-89
2022/11/13 13:46:06;;;;;;;8.10;4.50;;;11.30;99.90;;;;;;6130829;23;20434;-90
2022/11/13 13:48:36;;;;;;;10.25;5.55;;;11.30;99.90;;;;;;6131298;23;20040;-89
2022/11/13 13:51:03;;;;;;;8.18;5.10;;;11.30;99.90;;;;;;6131429;23;20024;-89
2022/11/13 13:53:32;;;;;;;8.32;4.82;;;11.30;99.90;;;;;;6131472;23;20024;-91
2022/11/13 13:55:58;;;;;;;8.70;4.47;;;11.30;99.90;;;;;;6156111;23;20446;-89